createdAt,value
2019-05-18T00:00:52.924Z,11.70
2019-05-18T00:03:21.460Z,11.60
2019-05-18T00:05:49.927Z,11.60
2019-05-18T00:08:18.392Z,11.60
2019-05-18T00:10:46.892Z,11.50
2019-05-18T00:13:15.360Z,11.50
2019-05-18T00:15:43.884Z,11.50
2019-05-18T00:18:12.456Z,11.40
2019-05-18T00:20:41.024Z,11.40
2019-05-18T00:23:09.524Z,11.40
2019-05-18T00:25:38.049Z,11.30
2019-05-18T00:28:06.501Z,11.30
2019-05-18T00:30:34.974Z,11.30
2019-05-18T00:33:03.587Z,11.20
2019-05-18T00:35:32.210Z,11.10
2019-05-18T00:38:00.688Z,11.10
2019-05-18T00:40:29.262Z,11.00
2019-05-18T00:42:57.723Z,11.00
2019-05-18T00:45:26.178Z,11.00
2019-05-18T00:47:54.672Z,10.90
2019-05-18T00:50:23.179Z,10.90
2019-05-18T00:52:51.643Z,10.80
2019-05-18T00:55:20.155Z,10.80
2019-05-18T00:57:48.700Z,10.70
2019-05-18T01:00:17.704Z,10.70
2019-05-18T01:02:46.208Z,10.60
2019-05-18T01:05:14.961Z,10.60
2019-05-18T01:07:43.493Z,10.50
2019-05-18T01:10:12.648Z,10.50
2019-05-18T01:12:41.180Z,10.50
2019-05-18T01:15:10.795Z,10.50
2019-05-18T01:17:39.540Z,10.40
2019-05-18T01:20:08.854Z,10.40
2019-05-18T01:22:37.328Z,10.40
2019-05-18T01:25:06.289Z,10.40
2019-05-18T01:27:34.796Z,10.40
2019-05-18T01:30:05.281Z,10.30
2019-05-18T01:32:33.788Z,10.30
2019-05-18T01:35:02.330Z,10.30
2019-05-18T01:37:30.935Z,10.30
2019-05-18T01:39:59.467Z,10.30
2019-05-18T01:42:27.935Z,10.30
2019-05-18T01:44:56.435Z,10.30
2019-05-18T01:47:24.908Z,10.30
2019-05-18T01:49:53.425Z,10.20
2019-05-18T01:52:21.900Z,10.20
2019-05-18T01:54:50.433Z,10.20
2019-05-18T01:57:18.927Z,10.20
2019-05-18T01:59:47.435Z,10.20
2019-05-18T02:02:15.928Z,10.10
2019-05-18T02:04:44.393Z,10.10
2019-05-18T02:07:12.951Z,10.10
2019-05-18T02:09:41.450Z,10.00
2019-05-18T02:12:09.916Z,10.00
2019-05-18T02:14:38.458Z,9.90
2019-05-18T02:17:07.027Z,9.90
2019-05-18T02:19:35.610Z,9.80
2019-05-18T02:22:04.133Z,9.80
2019-05-18T02:24:32.580Z,9.80
2019-05-18T02:27:01.309Z,9.70
2019-05-18T02:29:29.761Z,9.70
2019-05-18T02:31:58.361Z,9.70
2019-05-18T02:34:26.902Z,9.70
2019-05-18T02:36:55.436Z,9.60
2019-05-18T02:39:23.967Z,9.60
2019-05-18T02:41:52.500Z,9.60
2019-05-18T02:44:20.947Z,9.50
2019-05-18T02:46:49.444Z,9.50
2019-05-18T02:49:18.041Z,9.50
2019-05-18T02:51:46.508Z,9.40
2019-05-18T02:54:15.044Z,9.40
2019-05-18T02:56:43.616Z,9.40
2019-05-18T02:59:12.153Z,9.40
2019-05-18T03:01:40.720Z,9.40
2019-05-18T03:04:09.228Z,9.40
2019-05-18T03:06:37.756Z,9.40
2019-05-18T03:09:06.908Z,9.40
2019-05-18T03:11:35.737Z,9.40
2019-05-18T03:14:04.608Z,9.40
2019-05-18T03:16:33.750Z,9.40
2019-05-18T03:19:08.241Z,9.40
2019-05-18T03:21:32.511Z,9.40
2019-05-18T03:24:00.983Z,9.40
2019-05-18T03:26:29.593Z,9.40
2019-05-18T03:28:58.129Z,9.40
2019-05-18T03:31:26.609Z,9.40
2019-05-18T03:33:55.169Z,9.40
2019-05-18T03:36:23.638Z,9.40
2019-05-18T03:38:52.207Z,9.40
2019-05-18T03:41:20.743Z,9.40
2019-05-18T03:43:49.227Z,9.50
2019-05-18T03:46:17.846Z,9.50
2019-05-18T03:48:46.370Z,9.50
2019-05-18T03:51:14.877Z,9.50
2019-05-18T03:53:43.326Z,9.60
2019-05-18T03:56:11.775Z,9.60
2019-05-18T03:58:40.553Z,9.70
2019-05-18T04:01:09.090Z,9.70
2019-05-18T04:03:37.671Z,9.80
2019-05-18T04:06:06.234Z,9.80
2019-05-18T04:08:34.798Z,9.90
2019-05-18T04:11:03.260Z,9.90
2019-05-18T04:13:31.849Z,10.00
2019-05-18T04:16:00.391Z,10.10
2019-05-18T04:18:28.926Z,10.10
2019-05-18T04:20:58.095Z,10.20
2019-05-18T04:23:26.601Z,10.20
2019-05-18T04:25:55.212Z,10.30
2019-05-18T04:28:23.681Z,10.30
2019-05-18T04:30:52.129Z,10.40
2019-05-18T04:33:20.639Z,10.50
2019-05-18T04:35:49.168Z,10.60
2019-05-18T04:38:17.684Z,10.80
2019-05-18T04:40:46.234Z,10.90
2019-05-18T04:43:14.771Z,11.00
2019-05-18T04:45:43.365Z,11.10
2019-05-18T04:48:11.814Z,11.20
2019-05-18T04:50:40.279Z,11.20
2019-05-18T04:53:08.773Z,11.30
2019-05-18T04:55:37.308Z,11.40
2019-05-18T04:58:05.805Z,11.40
2019-05-18T05:00:34.352Z,11.50
2019-05-18T05:03:03.399Z,11.60
2019-05-18T05:05:31.922Z,11.60
2019-05-18T05:08:00.389Z,11.70
2019-05-18T05:10:28.913Z,11.70
2019-05-18T05:12:57.429Z,11.80
2019-05-18T05:15:25.956Z,11.80
2019-05-18T05:17:54.416Z,11.80
2019-05-18T05:20:22.986Z,11.90
2019-05-18T05:22:51.630Z,11.90
2019-05-18T05:25:20.101Z,11.90
2019-05-18T05:27:48.658Z,12.00
2019-05-18T05:30:17.220Z,12.10
2019-05-18T05:32:45.747Z,12.10
2019-05-18T05:35:14.538Z,12.20
2019-05-18T05:37:43.073Z,12.20
2019-05-18T05:40:11.952Z,12.30
2019-05-18T05:42:40.477Z,12.40
2019-05-18T05:45:09.484Z,12.50
2019-05-18T05:47:37.939Z,12.60
2019-05-18T05:50:10.530Z,12.70
2019-05-18T05:52:39.072Z,12.90
2019-05-18T05:55:08.453Z,12.90
2019-05-18T05:57:37.017Z,13.00
2019-05-18T06:00:07.725Z,13.10
2019-05-18T06:02:36.291Z,13.20
2019-05-18T06:05:06.430Z,13.20
2019-05-18T06:07:35.369Z,13.30
2019-05-18T06:10:05.362Z,13.40
2019-05-18T06:12:33.849Z,13.50
2019-05-18T06:15:02.396Z,13.60
2019-05-18T06:17:31.000Z,13.60
2019-05-18T06:19:59.472Z,13.70
2019-05-18T06:22:28.005Z,13.80
2019-05-18T06:24:56.599Z,13.80
2019-05-18T06:27:25.149Z,13.90
2019-05-18T06:29:53.608Z,14.00
2019-05-18T06:32:22.106Z,14.10
2019-05-18T06:34:50.601Z,14.10
2019-05-18T06:37:19.085Z,14.30
2019-05-18T06:39:47.632Z,14.30
2019-05-18T06:42:16.161Z,14.50
2019-05-18T06:44:44.625Z,14.60
2019-05-18T06:47:13.153Z,14.60
2019-05-18T06:49:41.665Z,14.70
2019-05-18T06:52:10.139Z,14.70
2019-05-18T06:54:38.738Z,14.80
2019-05-18T06:57:08.470Z,14.80
2019-05-18T06:59:38.169Z,14.90
2019-05-18T07:02:06.706Z,15.00
2019-05-18T07:04:35.179Z,15.00
2019-05-18T07:07:03.714Z,15.10
2019-05-18T07:09:32.238Z,15.10
2019-05-18T07:12:00.698Z,15.10
2019-05-18T07:14:29.164Z,15.20
2019-05-18T07:16:57.674Z,15.40
2019-05-18T07:19:26.145Z,15.70
2019-05-18T07:21:54.594Z,15.90
2019-05-18T07:24:23.105Z,16.00
2019-05-18T07:26:51.640Z,16.20
2019-05-18T07:29:20.153Z,16.20
2019-05-18T07:31:48.694Z,16.40
2019-05-18T07:34:17.233Z,16.50
2019-05-18T07:36:45.808Z,16.50
2019-05-18T07:39:14.408Z,16.50
2019-05-18T07:41:46.786Z,16.60
2019-05-18T07:44:13.085Z,16.70
2019-05-18T07:46:41.644Z,16.70
2019-05-18T07:49:10.134Z,16.80
2019-05-18T07:51:38.585Z,17.00
2019-05-18T07:54:07.103Z,17.10
2019-05-18T07:56:35.572Z,17.10
2019-05-18T07:59:04.144Z,17.20
2019-05-18T08:01:32.689Z,17.30
2019-05-18T08:04:01.147Z,17.30
2019-05-18T08:06:29.704Z,17.40
2019-05-18T08:08:58.279Z,17.40
2019-05-18T08:11:26.816Z,17.60
2019-05-18T08:13:55.326Z,17.60
2019-05-18T08:16:23.876Z,17.70
2019-05-18T08:18:52.393Z,17.80
2019-05-18T08:21:21.039Z,17.80
2019-05-18T08:23:49.581Z,18.00
2019-05-18T08:26:18.090Z,18.10
2019-05-18T08:28:46.599Z,18.20
2019-05-18T08:31:15.212Z,18.30
2019-05-18T08:33:43.690Z,18.40
2019-05-18T08:36:36.508Z,18.50
2019-05-18T08:39:06.567Z,18.50
2019-05-18T08:41:35.089Z,18.60
2019-05-18T08:44:03.593Z,18.60
2019-05-18T08:46:32.973Z,18.70
2019-05-18T08:49:01.430Z,19.00
2019-05-18T08:51:29.937Z,18.90
2019-05-18T08:53:58.398Z,19.00
2019-05-18T08:56:26.876Z,19.20
2019-05-18T08:58:55.462Z,19.30
2019-05-18T09:01:23.905Z,19.40
2019-05-18T09:03:52.363Z,19.40
2019-05-18T09:06:20.886Z,19.50
2019-05-18T09:08:49.414Z,19.60
2019-05-18T09:11:17.894Z,19.60
2019-05-18T09:13:46.492Z,19.70
2019-05-18T09:16:14.950Z,19.70
2019-05-18T09:18:43.399Z,19.80
2019-05-18T09:21:12.203Z,19.80
2019-05-18T09:23:40.658Z,19.90
2019-05-18T09:26:09.216Z,19.90
2019-05-18T09:28:37.742Z,20.00
2019-05-18T09:31:06.318Z,20.10
2019-05-18T09:33:34.841Z,20.20
2019-05-18T09:36:03.299Z,20.30
2019-05-18T09:38:33.371Z,20.50
2019-05-18T09:41:02.157Z,20.40
2019-05-18T09:43:30.618Z,20.50
2019-05-18T09:45:59.113Z,20.50
2019-05-18T09:48:27.566Z,20.60
2019-05-18T09:50:56.159Z,20.70
2019-05-18T09:53:24.627Z,20.80
2019-05-18T09:55:53.079Z,20.90
2019-05-18T09:58:21.579Z,20.90
2019-05-18T10:00:50.045Z,21.00
2019-05-18T10:03:18.638Z,21.00
2019-05-18T10:05:47.094Z,21.10
2019-05-18T10:08:15.547Z,21.10
2019-05-18T10:10:44.039Z,21.30
2019-05-18T10:13:12.502Z,21.40
2019-05-18T10:15:41.139Z,21.50
2019-05-18T10:18:09.600Z,21.60
2019-05-18T10:20:38.060Z,21.70
2019-05-18T10:23:12.678Z,21.90
2019-05-18T10:25:37.216Z,22.20
2019-05-18T10:28:05.714Z,22.20
2019-05-18T10:30:34.217Z,22.40
2019-05-18T10:33:02.713Z,22.50
2019-05-18T10:35:31.209Z,22.70
2019-05-18T10:37:59.698Z,22.70
2019-05-18T10:40:28.154Z,22.70
2019-05-18T10:42:56.655Z,22.90
2019-05-18T10:45:25.187Z,23.20
2019-05-18T10:47:53.642Z,23.50
2019-05-18T10:50:22.158Z,23.80
2019-05-18T10:52:50.610Z,23.80
2019-05-18T10:55:19.393Z,23.30
2019-05-18T10:57:47.886Z,23.40
2019-05-18T11:00:18.051Z,23.50
2019-05-18T11:02:45.763Z,23.50
2019-05-18T11:05:14.958Z,23.70
2019-05-18T11:07:43.522Z,23.90
2019-05-18T11:10:12.440Z,24.00
2019-05-18T11:12:40.994Z,24.40
2019-05-18T11:15:10.382Z,24.70
2019-05-18T11:17:39.107Z,24.70
2019-05-18T11:20:09.200Z,24.60
2019-05-18T11:22:37.315Z,24.80
2019-05-18T11:25:07.456Z,25.30
2019-05-18T11:27:35.270Z,25.40
2019-05-18T11:30:08.140Z,25.40
2019-05-18T11:32:37.355Z,25.10
2019-05-18T11:35:07.760Z,25.30
2019-05-18T11:37:36.294Z,25.70
2019-05-18T11:40:06.763Z,26.30
2019-05-18T11:42:35.258Z,26.60
2019-05-18T11:45:05.630Z,27.00
2019-05-18T11:47:34.082Z,27.00
2019-05-18T11:50:02.637Z,27.00
2019-05-18T11:52:31.173Z,27.00
2019-05-18T11:54:59.702Z,27.20
2019-05-18T11:57:28.194Z,27.50
2019-05-18T11:59:56.691Z,27.90
2019-05-18T12:02:25.178Z,27.30
2019-05-18T12:04:53.686Z,27.20
2019-05-18T12:07:22.175Z,27.00
2019-05-18T12:09:50.618Z,27.00
2019-05-18T12:12:19.104Z,27.60
2019-05-18T12:14:47.613Z,27.40
2019-05-18T12:17:16.086Z,27.90
2019-05-18T12:19:44.649Z,28.20
2019-05-18T12:22:13.092Z,27.70
2019-05-18T12:24:41.590Z,27.20
2019-05-18T12:27:10.042Z,26.60
2019-05-18T12:29:38.577Z,26.80
2019-05-18T12:32:07.074Z,27.40
2019-05-18T12:34:35.538Z,28.20
2019-05-18T12:37:04.062Z,28.60
2019-05-18T12:39:32.546Z,28.30
2019-05-18T12:42:01.055Z,27.90
2019-05-18T12:44:29.516Z,27.40
2019-05-18T12:46:57.988Z,27.00
2019-05-18T12:49:26.731Z,26.80
2019-05-18T12:51:55.184Z,26.50
2019-05-18T12:54:30.945Z,26.40
2019-05-18T12:56:53.859Z,26.60
2019-05-18T12:59:22.306Z,27.00
2019-05-18T13:01:50.819Z,26.90
2019-05-18T13:04:19.342Z,26.40
2019-05-18T13:06:47.791Z,26.20
2019-05-18T13:09:16.286Z,26.30
2019-05-18T13:11:44.736Z,26.50
2019-05-18T13:14:13.346Z,26.60
2019-05-18T13:16:41.886Z,26.30
2019-05-18T13:19:10.343Z,26.60
2019-05-18T13:21:38.836Z,26.60
2019-05-18T13:24:07.281Z,26.60
2019-05-18T13:26:35.814Z,26.60
2019-05-18T13:29:04.486Z,26.70
2019-05-18T13:31:32.943Z,26.80
2019-05-18T13:34:01.449Z,26.70
2019-05-18T13:36:29.912Z,26.60
2019-05-18T13:38:58.429Z,26.20
2019-05-18T13:41:26.994Z,26.40
2019-05-18T13:43:55.511Z,26.60
2019-05-18T13:46:23.956Z,26.70
2019-05-18T13:48:52.462Z,26.50
2019-05-18T13:51:20.915Z,27.20
2019-05-18T13:53:49.380Z,28.00
2019-05-18T13:56:17.966Z,28.20
2019-05-18T13:58:46.414Z,28.60
2019-05-18T14:01:14.866Z,29.00
2019-05-18T14:03:43.401Z,28.90
2019-05-18T14:06:11.888Z,29.50
2019-05-18T14:08:40.346Z,30.30
2019-05-18T14:11:08.833Z,30.10
2019-05-18T14:13:37.275Z,29.20
2019-05-18T14:16:05.772Z,28.90
2019-05-18T14:18:34.315Z,28.70
2019-05-18T14:21:02.850Z,28.60
2019-05-18T14:23:31.374Z,28.90
2019-05-18T14:25:59.857Z,29.50
2019-05-18T14:28:28.325Z,30.10
2019-05-18T14:30:56.865Z,30.70
2019-05-18T14:33:25.366Z,30.70
2019-05-18T14:35:53.918Z,30.60
2019-05-18T14:38:22.375Z,29.70
2019-05-18T14:40:50.910Z,30.00
2019-05-18T14:43:19.370Z,29.60
2019-05-18T14:45:49.471Z,29.20
2019-05-18T14:48:18.056Z,28.70
2019-05-18T14:50:46.578Z,28.30
2019-05-18T14:53:15.032Z,27.70
2019-05-18T14:55:43.521Z,27.30
2019-05-18T14:58:11.971Z,27.60
2019-05-18T15:00:40.487Z,28.40
2019-05-18T15:03:09.009Z,28.20
2019-05-18T15:05:38.805Z,28.10
2019-05-18T15:08:07.550Z,28.20
2019-05-18T15:10:36.087Z,28.50
2019-05-18T15:13:04.654Z,28.60
2019-05-18T15:15:33.117Z,28.50
2019-05-18T15:18:01.720Z,28.50
2019-05-18T15:20:30.395Z,29.00
2019-05-18T15:22:58.837Z,30.00
2019-05-18T15:25:27.331Z,30.80
2019-05-18T15:27:55.823Z,31.60
2019-05-18T15:30:24.711Z,32.40
2019-05-18T15:32:53.194Z,33.10
2019-05-18T15:35:21.689Z,33.40
2019-05-18T15:37:50.143Z,32.70
2019-05-18T15:40:19.004Z,32.90
2019-05-18T15:42:47.453Z,33.20
2019-05-18T15:45:17.711Z,33.20
2019-05-18T15:47:46.208Z,32.70
2019-05-18T15:50:15.222Z,32.70
2019-05-18T15:52:43.738Z,32.90
2019-05-18T15:55:12.529Z,32.70
2019-05-18T15:57:40.993Z,32.60
2019-05-18T16:00:10.579Z,32.70
2019-05-18T16:02:39.032Z,32.40
2019-05-18T16:05:08.935Z,32.80
2019-05-18T16:07:37.551Z,33.00
2019-05-18T16:10:06.747Z,33.30
2019-05-18T16:12:35.280Z,33.40
2019-05-18T16:15:07.439Z,33.10
2019-05-18T16:17:39.412Z,32.80
2019-05-18T16:20:06.983Z,31.70
2019-05-18T16:22:35.501Z,32.00
2019-05-18T16:25:05.990Z,32.40
2019-05-18T16:27:34.477Z,32.30
2019-05-18T16:30:06.628Z,32.10
2019-05-18T16:32:35.087Z,32.20
2019-05-18T16:35:04.908Z,32.30
2019-05-18T16:37:33.385Z,32.30
2019-05-18T16:40:01.848Z,32.40
2019-05-18T16:42:30.458Z,32.20
2019-05-18T16:44:58.915Z,32.20
2019-05-18T16:47:27.441Z,32.00
2019-05-18T16:49:55.929Z,31.90
2019-05-18T16:52:24.442Z,31.20
2019-05-18T16:54:52.896Z,31.30
2019-05-18T16:57:21.358Z,31.40
2019-05-18T16:59:49.876Z,31.40
2019-05-18T17:02:31.169Z,31.00
2019-05-18T17:04:48.604Z,31.10
2019-05-18T17:07:17.093Z,31.10
2019-05-18T17:09:45.538Z,31.00
2019-05-18T17:12:14.181Z,30.90
2019-05-18T17:14:42.623Z,30.40
2019-05-18T17:17:11.074Z,29.90
2019-05-18T17:19:39.648Z,29.40
2019-05-18T17:22:08.412Z,29.10
2019-05-18T17:24:36.865Z,29.20
2019-05-18T17:27:05.442Z,29.30
2019-05-18T17:29:33.891Z,29.10
2019-05-18T17:32:02.347Z,29.10
2019-05-18T17:34:30.938Z,29.30
2019-05-18T17:36:59.446Z,29.50
2019-05-18T17:39:28.031Z,29.50
2019-05-18T17:41:56.491Z,29.60
2019-05-18T17:44:24.946Z,29.70
2019-05-18T17:46:53.438Z,29.50
2019-05-18T17:49:26.908Z,29.50
2019-05-18T17:51:52.182Z,29.30
2019-05-18T17:54:20.715Z,29.00
2019-05-18T17:56:49.308Z,28.40
2019-05-18T17:59:17.825Z,28.10
2019-05-18T18:01:46.263Z,27.70
2019-05-18T18:04:14.799Z,27.20
2019-05-18T18:06:43.246Z,26.80
2019-05-18T18:09:11.695Z,26.80
2019-05-18T18:11:40.330Z,26.80
2019-05-18T18:14:08.855Z,26.70
2019-05-18T18:16:37.381Z,26.50
2019-05-18T18:19:05.915Z,26.40
2019-05-18T18:21:34.369Z,26.20
2019-05-18T18:24:03.106Z,25.90
2019-05-18T18:26:31.600Z,25.50
2019-05-18T18:29:00.153Z,25.20
2019-05-18T18:31:28.603Z,24.90
2019-05-18T18:33:57.091Z,24.60
2019-05-18T18:36:25.618Z,24.30
2019-05-18T18:38:54.074Z,24.00
2019-05-18T18:41:22.524Z,23.70
2019-05-18T18:43:51.017Z,23.40
2019-05-18T18:46:19.535Z,23.20
2019-05-18T18:48:48.081Z,22.90
2019-05-18T18:51:16.621Z,22.70
2019-05-18T18:53:45.159Z,22.50
2019-05-18T18:56:13.682Z,22.20
2019-05-18T18:58:42.170Z,21.90
2019-05-18T19:01:10.734Z,21.70
2019-05-18T19:03:39.212Z,21.50
2019-05-18T19:06:07.963Z,21.20
2019-05-18T19:08:36.419Z,21.00
2019-05-18T19:11:04.944Z,20.80
2019-05-18T19:13:33.442Z,20.60
2019-05-18T19:16:01.935Z,20.40
2019-05-18T19:18:30.523Z,20.20
2019-05-18T19:20:58.982Z,20.00
2019-05-18T19:23:27.580Z,19.90
2019-05-18T19:25:56.110Z,19.70
2019-05-18T19:28:24.559Z,19.50
2019-05-18T19:30:53.076Z,19.40
2019-05-18T19:33:21.562Z,19.20
2019-05-18T19:35:50.021Z,19.00
2019-05-18T19:38:18.630Z,18.90
2019-05-18T19:40:47.074Z,18.80
2019-05-18T19:43:15.590Z,18.70
2019-05-18T19:46:03.423Z,18.50
2019-05-18T19:48:31.875Z,18.40
2019-05-18T19:51:00.366Z,18.30
2019-05-18T19:53:28.862Z,18.20
2019-05-18T19:55:57.383Z,18.00
2019-05-18T19:58:25.916Z,18.00
2019-05-18T20:00:54.370Z,17.80
2019-05-18T20:03:22.942Z,17.80
2019-05-18T20:05:51.448Z,17.70
2019-05-18T20:08:19.913Z,17.50
2019-05-18T20:10:48.450Z,17.40
2019-05-18T20:13:17.107Z,17.30
2019-05-18T20:15:45.565Z,17.20
2019-05-18T20:18:14.031Z,17.10
2019-05-18T20:20:42.521Z,17.00
2019-05-18T20:23:10.983Z,16.90
2019-05-18T20:25:39.575Z,16.80
2019-05-18T20:28:08.036Z,16.80
2019-05-18T20:30:36.498Z,16.70
2019-05-18T20:33:05.084Z,16.60
2019-05-18T20:35:33.614Z,16.50
2019-05-18T20:38:03.339Z,16.40
2019-05-18T20:40:31.766Z,16.30
2019-05-18T20:43:00.378Z,16.20
2019-05-18T20:45:28.828Z,16.20
2019-05-18T20:47:57.296Z,16.10
2019-05-18T20:50:25.891Z,16.00
2019-05-18T20:52:54.347Z,16.00
2019-05-18T20:55:22.875Z,15.90
2019-05-18T20:57:51.410Z,15.80
2019-05-18T21:00:19.955Z,15.70
2019-05-18T21:02:49.392Z,15.70
2019-05-18T21:05:18.165Z,15.60
2019-05-18T21:07:46.776Z,15.60
2019-05-18T21:10:15.402Z,15.50
2019-05-18T21:12:43.865Z,15.40
2019-05-18T21:15:13.024Z,15.40
2019-05-18T21:17:41.985Z,15.30
2019-05-18T21:20:31.443Z,15.30
2019-05-18T21:22:59.908Z,15.10
2019-05-18T21:25:28.457Z,15.10
2019-05-18T21:27:57.047Z,15.00
2019-05-18T21:30:25.576Z,14.90
2019-05-18T21:32:54.032Z,14.80
2019-05-18T21:35:22.627Z,14.80
2019-05-18T21:37:51.086Z,14.70
2019-05-18T21:40:19.633Z,14.60
2019-05-18T21:42:48.198Z,14.50
2019-05-18T21:45:17.080Z,14.50
2019-05-18T21:47:45.642Z,14.40
2019-05-18T21:50:15.025Z,14.40
2019-05-18T21:52:43.604Z,14.30
2019-05-18T21:55:12.716Z,14.20
2019-05-18T21:57:42.776Z,14.20
2019-05-18T22:02:47.259Z,14.10
2019-05-18T22:05:15.714Z,14.00
2019-05-18T22:07:44.210Z,14.00
2019-05-18T22:10:24.741Z,13.90
2019-05-18T22:12:43.225Z,13.90
2019-05-18T22:15:12.129Z,13.80
2019-05-18T22:17:58.612Z,13.80
2019-05-18T22:20:27.071Z,13.70
2019-05-18T22:22:55.596Z,13.70
2019-05-18T22:25:24.137Z,13.60
2019-05-18T22:27:52.675Z,13.60
2019-05-18T22:30:21.122Z,13.60
2019-05-18T22:32:49.609Z,13.50
2019-05-18T22:35:18.068Z,13.40
2019-05-18T22:37:47.731Z,13.40
2019-05-18T22:40:16.297Z,13.30
2019-05-18T22:42:44.790Z,13.30
2019-05-18T22:45:13.518Z,13.20
2019-05-18T22:47:41.982Z,13.20
2019-05-18T22:50:12.359Z,13.10
2019-05-18T22:52:40.877Z,13.10
2019-05-18T22:55:09.672Z,13.10
2019-05-18T22:57:38.185Z,13.00
2019-05-18T23:00:10.583Z,12.90
2019-05-18T23:02:39.039Z,12.90
2019-05-18T23:05:07.673Z,12.90
2019-05-18T23:07:36.127Z,12.80
2019-05-18T23:10:06.022Z,12.80
2019-05-18T23:12:34.535Z,12.70
2019-05-18T23:15:03.265Z,12.70
2019-05-18T23:17:31.710Z,12.60
2019-05-18T23:20:00.452Z,12.60
2019-05-18T23:22:28.913Z,12.50
2019-05-18T23:24:57.367Z,12.50
2019-05-18T23:27:25.888Z,12.50
2019-05-18T23:29:54.418Z,12.40
2019-05-18T23:32:22.879Z,12.40
2019-05-18T23:34:51.423Z,12.30
2019-05-18T23:37:19.945Z,12.30
2019-05-18T23:39:48.404Z,12.30
2019-05-18T23:42:16.916Z,12.20
2019-05-18T23:44:45.441Z,12.20
2019-05-18T23:47:13.899Z,12.10
2019-05-18T23:49:42.402Z,12.10
2019-05-18T23:52:10.916Z,12.00
2019-05-18T23:54:39.421Z,12.00
2019-05-18T23:57:07.945Z,12.00
2019-05-18T23:59:36.433Z,12.00
